This is the latest recevied weather packets stored in our database for station/object 5B4APJ-13. If no packets are shown the sender has not sent any weather packets the latest 10 day(s).
| Time | Temp. | Humidity | Pressure | Rain* | Wind** | Luminosity | Snow |
|---|---|---|---|---|---|---|---|
| 1777887125 | 13.89° C | 62% | 1009.1 hPa | 0 mm | 4.02 m/s, 239° | 87 W/m² | - |
| 1777886825 | 14.44° C | 63% | 1008.7 hPa | 0 mm | 2.24 m/s, 229° | 130 W/m² | - |
| 1777886524 | 14.44° C | 67% | 1008.8 hPa | 0 mm | 1.34 m/s, 305° | 99 W/m² | - |
| 1777886225 | 13.89° C | 66% | 1008.8 hPa | 0 mm | 2.24 m/s, 270° | 88 W/m² | - |
| 1777885925 | 14.44° C | 66% | 1008.6 hPa | 0 mm | 3.58 m/s, 234° | 129 W/m² | - |
| 1777885625 | 14.44° C | 66% | 1008.5 hPa | 0 mm | 4.92 m/s, 245° | 135 W/m² | - |
| 1777885325 | 14.44° C | 65% | 1008.6 hPa | 0 mm | 4.02 m/s, 243° | 239 W/m² | - |
| 1777885025 | 14.44° C | 66% | 1008.5 hPa | 0 mm | 2.68 m/s, 235° | 350 W/m² | - |
| 1777884726 | 14.44° C | 64% | 1008.5 hPa | 0 mm | 3.58 m/s, 236° | 178 W/m² | - |
| 1777884426 | 15° C | 63% | 1008.3 hPa | 0 mm | 3.58 m/s, 264° | 374 W/m² | - |
| 1777884126 | 15° C | 63% | 1008.3 hPa | 0 mm | 5.36 m/s, 239° | 458 W/m² | - |
| 1777883825 | 14.44° C | 65% | 1008.1 hPa | 0 mm | 3.58 m/s, 245° | 963 W/m² | - |
| 1777883526 | 14.44° C | 64% | 1008.2 hPa | 0 mm | 5.81 m/s, 234° | 974 W/m² | - |
| 1777883226 | 14.44° C | 64% | 1008.2 hPa | 0 mm | 4.92 m/s, 226° | 473 W/m² | - |
| 1777882926 | 13.89° C | 67% | 1008.2 hPa | 0 mm | 3.58 m/s, 240° | 1100 W/m² | - |
| 1777882626 | 13.89° C | 65% | 1008.2 hPa | 0 mm | 6.26 m/s, 238° | 398 W/m² | - |
| 1777882325 | 13.89° C | 65% | 1008.2 hPa | 0.25 mm | 4.02 m/s, 236° | 266 W/m² | - |
| 1777882026 | 13.89° C | 65% | 1007.9 hPa | 0.25 mm | 2.24 m/s, 235° | 243 W/m² | - |
| 1777881726 | 13.89° C | 64% | 1008 hPa | 0.25 mm | 4.47 m/s, 221° | 850 W/m² | - |
| 1777881426 | 13.89° C | 66% | 1008 hPa | 0.25 mm | 3.58 m/s, 235° | 291 W/m² | - |
| 1777881125 | 13.89° C | 66% | 1008.1 hPa | 0.25 mm | 3.58 m/s, 257° | 261 W/m² | - |
| 1777880825 | 13.89° C | 67% | 1008 hPa | 0.25 mm | 3.58 m/s, 245° | 302 W/m² | - |
| 1777880525 | 13.89° C | 68% | 1007.9 hPa | 0.25 mm | 3.13 m/s, 237° | 401 W/m² | - |
| 1777880226 | 13.33° C | 69% | 1008 hPa | 0.25 mm | 5.36 m/s, 247° | 538 W/m² | - |
| 1777879926 | 13.33° C | 70% | 1007.9 hPa | 0.25 mm | 5.81 m/s, 257° | 392 W/m² | - |
* Rain latest hour (hover to see other rain measurements)
** Current wind speed in m/s (hover to see current wind gust speed)